createdAt,value
2018-06-22T00:01:40.523Z,82.52
2018-06-22T00:04:09.542Z,81.99
2018-06-22T00:06:38.111Z,82.28
2018-06-22T00:09:09.163Z,83.08
2018-06-22T00:11:37.791Z,82.38
2018-06-22T00:14:06.582Z,82.33
2018-06-22T00:16:35.124Z,83.26
2018-06-22T00:19:03.866Z,83.35
2018-06-22T00:21:32.652Z,84.06
2018-06-22T00:24:01.268Z,84.37
2018-06-22T00:26:29.788Z,85.29
2018-06-22T00:28:58.379Z,85.10
2018-06-22T00:31:27.081Z,85.60
2018-06-22T00:33:55.650Z,85.99
2018-06-22T00:36:24.418Z,85.89
2018-06-22T00:38:53.002Z,86.90
2018-06-22T00:41:21.655Z,87.34
2018-06-22T00:43:50.275Z,88.58
2018-06-22T00:46:18.896Z,88.77
2018-06-22T00:48:47.894Z,89.67
2018-06-22T00:51:16.714Z,89.59
2018-06-22T00:53:56.510Z,90.61
2018-06-22T00:56:25.436Z,91.13
2018-06-22T00:58:54.223Z,91.37
2018-06-22T01:01:23.154Z,90.95
2018-06-22T01:03:51.622Z,90.87
2018-06-22T01:06:20.442Z,91.52
2018-06-22T01:08:49.093Z,91.75
2018-06-22T01:11:17.634Z,91.76
2018-06-22T01:13:46.236Z,91.92
2018-06-22T01:16:14.741Z,92.57
2018-06-22T01:18:43.359Z,91.86
2018-06-22T01:21:11.865Z,92.05
2018-06-22T01:23:40.463Z,92.01
2018-06-22T01:26:09.113Z,92.56
2018-06-22T01:28:37.688Z,92.62
2018-06-22T01:31:06.452Z,91.65
2018-06-22T01:33:35.091Z,91.54
2018-06-22T01:36:03.633Z,91.52
2018-06-22T01:38:32.568Z,90.88
2018-06-22T01:41:01.161Z,90.63
2018-06-22T01:43:29.746Z,90.49
2018-06-22T01:45:58.314Z,91.82
2018-06-22T01:48:27.003Z,91.29
2018-06-22T01:50:55.906Z,90.51
2018-06-22T01:53:24.439Z,91.12
2018-06-22T01:55:52.983Z,91.12
2018-06-22T01:58:21.697Z,91.00
2018-06-22T02:00:50.248Z,91.46
2018-06-22T02:03:18.782Z,90.06
2018-06-22T02:05:47.477Z,89.49
2018-06-22T02:08:16.101Z,90.28
2018-06-22T02:10:44.661Z,89.39
2018-06-22T02:13:13.276Z,89.68
2018-06-22T02:15:45.257Z,90.20
2018-06-22T02:18:13.835Z,90.21
2018-06-22T02:20:42.521Z,89.89
2018-06-22T02:23:10.983Z,89.21
2018-06-22T02:25:39.666Z,89.14
2018-06-22T02:28:08.231Z,89.13
2018-06-22T02:30:36.749Z,89.02
2018-06-22T02:33:05.672Z,89.54
2018-06-22T02:35:34.300Z,89.22
2018-06-22T02:38:02.851Z,89.34
2018-06-22T02:40:31.420Z,89.69
2018-06-22T02:43:00.030Z,89.70
2018-06-22T02:45:28.555Z,88.72
2018-06-22T02:47:57.123Z,88.74
2018-06-22T02:50:25.841Z,89.40
2018-06-22T02:52:54.361Z,88.92
2018-06-22T02:55:23.442Z,89.23
2018-06-22T02:57:52.055Z,88.31
2018-06-22T03:00:20.607Z,88.54
2018-06-22T03:02:49.249Z,88.55
2018-06-22T03:05:17.815Z,88.59
2018-06-22T03:07:46.387Z,88.32
2018-06-22T03:10:14.983Z,88.62
2018-06-22T03:12:43.759Z,87.81
2018-06-22T03:15:12.255Z,88.49
2018-06-22T03:17:40.854Z,87.79
2018-06-22T03:20:09.418Z,87.91
2018-06-22T03:22:38.005Z,88.18
2018-06-22T03:25:06.518Z,87.94
2018-06-22T03:27:35.084Z,87.49
2018-06-22T03:30:03.766Z,87.87
2018-06-22T03:32:32.362Z,88.00
2018-06-22T03:35:01.319Z,87.78
2018-06-22T03:37:30.204Z,88.48
2018-06-22T03:39:58.781Z,87.83
2018-06-22T03:42:27.428Z,87.84
2018-06-22T03:44:56.061Z,87.39
2018-06-22T03:47:24.577Z,87.68
2018-06-22T03:49:53.438Z,87.94
2018-06-22T03:52:21.919Z,87.59
2018-06-22T03:54:50.473Z,87.54
2018-06-22T03:57:19.792Z,88.07
2018-06-22T03:59:48.387Z,87.65
2018-06-22T04:02:16.886Z,88.09
2018-06-22T04:04:45.515Z,87.89
2018-06-22T04:07:14.130Z,88.62
2018-06-22T04:09:42.781Z,87.35
2018-06-22T04:12:11.595Z,87.31
2018-06-22T04:14:40.300Z,88.42
2018-06-22T04:17:08.875Z,87.28
2018-06-22T04:19:37.506Z,88.12
2018-06-22T04:22:06.251Z,87.23
2018-06-22T04:24:35.212Z,87.87
2018-06-22T04:27:04.226Z,87.38
2018-06-22T04:29:32.734Z,88.05
2018-06-22T04:32:01.269Z,89.35
2018-06-22T04:34:29.902Z,90.12
2018-06-22T04:36:58.621Z,90.46
2018-06-22T04:39:27.260Z,91.29
2018-06-22T04:41:55.960Z,92.59
2018-06-22T04:44:24.472Z,93.68
2018-06-22T04:46:53.005Z,93.44
2018-06-22T04:49:21.993Z,93.56
2018-06-22T04:51:56.355Z,93.62
2018-06-22T04:54:26.833Z,93.61
2018-06-22T04:56:55.562Z,93.51
2018-06-22T04:59:24.613Z,94.29
2018-06-22T05:01:53.341Z,93.45
2018-06-22T05:04:22.630Z,93.85
2018-06-22T05:06:51.362Z,94.76
2018-06-22T05:09:20.838Z,94.42
2018-06-22T05:11:49.408Z,94.44
2018-06-22T05:14:18.172Z,93.91
2018-06-22T05:16:46.722Z,93.91
2018-06-22T05:19:15.251Z,95.12
2018-06-22T05:21:44.126Z,94.51
2018-06-22T05:24:12.763Z,95.23
2018-06-22T05:26:41.343Z,95.64
2018-06-22T05:29:11.005Z,95.25
2018-06-22T05:31:39.755Z,95.56
2018-06-22T05:34:08.365Z,96.75
2018-06-22T05:36:36.935Z,97.91
2018-06-22T05:39:08.426Z,97.81
2018-06-22T05:41:37.217Z,98.44
2018-06-22T05:44:05.758Z,98.23
2018-06-22T05:46:34.410Z,98.86
2018-06-22T05:49:02.978Z,98.32
2018-06-22T05:51:31.549Z,99.66
2018-06-22T05:54:00.316Z,99.98
2018-06-22T05:56:28.987Z,100.00
2018-06-22T05:58:57.570Z,100.00
2018-06-22T06:01:26.387Z,100.00
2018-06-22T06:03:55.521Z,100.00
2018-06-22T06:06:24.140Z,100.00
2018-06-22T06:08:53.146Z,99.30
2018-06-22T06:11:21.889Z,99.71
2018-06-22T06:13:50.809Z,100.00
2018-06-22T06:16:19.354Z,100.00
2018-06-22T06:18:48.069Z,100.00
2018-06-22T06:21:16.689Z,100.00
2018-06-22T06:23:45.469Z,100.00
2018-06-22T06:26:14.166Z,100.00
2018-06-22T06:28:42.826Z,100.00
2018-06-22T06:31:11.504Z,100.00
2018-06-22T06:33:40.232Z,100.00
2018-06-22T06:36:08.843Z,100.00
2018-06-22T06:38:37.348Z,100.00
2018-06-22T06:41:06.033Z,100.00
2018-06-22T06:43:34.647Z,100.00
2018-06-22T06:46:03.250Z,99.76
2018-06-22T06:48:31.816Z,100.00
2018-06-22T06:51:00.390Z,100.00
2018-06-22T06:53:28.889Z,100.00
2018-06-22T06:55:57.531Z,100.00
2018-06-22T06:58:26.222Z,100.00
2018-06-22T07:00:54.938Z,100.00
2018-06-22T07:03:23.582Z,100.00
2018-06-22T07:05:52.349Z,99.84
2018-06-22T07:08:21.002Z,100.00
2018-06-22T07:10:49.554Z,100.00
2018-06-22T07:13:18.323Z,99.25
2018-06-22T07:15:47.177Z,99.01
2018-06-22T07:18:15.726Z,99.86
2018-06-22T07:20:44.302Z,100.00
2018-06-22T07:23:12.959Z,97.99
2018-06-22T07:25:41.509Z,99.73
2018-06-22T07:28:10.065Z,99.30
2018-06-22T07:30:38.862Z,99.44
2018-06-22T07:33:07.425Z,98.76
2018-06-22T07:35:35.976Z,98.07
2018-06-22T07:38:04.679Z,97.40
2018-06-22T07:40:33.322Z,97.04
2018-06-22T07:43:01.874Z,96.31
2018-06-22T07:45:30.495Z,97.36
2018-06-22T07:47:59.702Z,97.19
2018-06-22T07:50:28.292Z,98.46
2018-06-22T07:52:56.965Z,98.00
2018-06-22T07:55:27.237Z,94.87
2018-06-22T07:57:55.926Z,94.87
2018-06-22T08:00:30.508Z,96.38
2018-06-22T08:02:59.179Z,96.51
2018-06-22T08:05:27.705Z,97.31
2018-06-22T08:07:56.446Z,93.61
2018-06-22T08:10:25.541Z,94.12
2018-06-22T08:12:54.232Z,92.78
2018-06-22T08:15:22.891Z,90.68
2018-06-22T08:17:51.494Z,92.17
2018-06-22T08:20:20.157Z,89.22
2018-06-22T08:22:48.727Z,90.82
2018-06-22T08:25:17.276Z,90.18
2018-06-22T08:27:45.867Z,92.74
2018-06-22T08:30:14.407Z,90.56
2018-06-22T08:32:43.070Z,89.94
2018-06-22T08:35:11.615Z,88.12
2018-06-22T08:37:41.567Z,87.23
2018-06-22T08:40:10.210Z,87.80
2018-06-22T08:42:38.818Z,87.88
2018-06-22T08:45:07.594Z,87.41
2018-06-22T08:47:36.557Z,87.55
2018-06-22T08:50:05.158Z,88.33
2018-06-22T08:52:33.876Z,87.32
2018-06-22T08:55:02.381Z,87.33
2018-06-22T08:57:31.081Z,88.49
2018-06-22T08:59:59.729Z,88.72
2018-06-22T09:02:28.259Z,90.96
2018-06-22T09:04:56.769Z,93.36
2018-06-22T09:07:25.410Z,95.43
2018-06-22T09:09:53.928Z,96.20
2018-06-22T09:12:22.418Z,95.60
2018-06-22T09:14:50.977Z,96.41
2018-06-22T09:17:19.626Z,95.75
2018-06-22T09:19:48.283Z,95.97
2018-06-22T09:22:16.967Z,94.40
2018-06-22T09:24:45.532Z,93.96
2018-06-22T09:27:14.166Z,94.16
2018-06-22T09:29:42.922Z,95.06
2018-06-22T09:32:11.517Z,90.67
2018-06-22T09:34:40.298Z,89.49
2018-06-22T09:37:08.939Z,89.79
2018-06-22T09:39:37.944Z,88.70
2018-06-22T09:42:06.592Z,86.27
2018-06-22T09:44:37.613Z,85.86
2018-06-22T09:47:06.460Z,86.22
2018-06-22T09:49:35.153Z,86.51
2018-06-22T09:52:03.671Z,83.62
2018-06-22T09:54:32.183Z,84.67
2018-06-22T09:57:00.690Z,85.43
2018-06-22T09:59:29.477Z,83.81
2018-06-22T10:01:58.070Z,81.90
2018-06-22T10:04:29.095Z,80.98
2018-06-22T10:06:57.626Z,82.96
2018-06-22T10:09:26.158Z,81.92
2018-06-22T10:11:54.647Z,81.90
2018-06-22T10:14:23.123Z,80.70
2018-06-22T10:16:51.968Z,78.66
2018-06-22T10:19:20.559Z,80.27
2018-06-22T10:21:49.608Z,79.83
2018-06-22T10:24:18.148Z,78.27
2018-06-22T10:26:46.753Z,80.10
2018-06-22T10:29:15.283Z,77.96
2018-06-22T10:31:43.878Z,76.42
2018-06-22T10:34:12.715Z,75.36
2018-06-22T10:36:41.412Z,76.42
2018-06-22T10:39:13.034Z,73.03
2018-06-22T10:41:42.454Z,70.87
2018-06-22T10:44:11.390Z,70.67
2018-06-22T10:46:41.197Z,69.69
2018-06-22T10:49:10.563Z,69.74
2018-06-22T10:51:39.192Z,68.78
2018-06-22T10:54:10.142Z,69.65
2018-06-22T10:56:39.392Z,67.76
2018-06-22T10:59:08.093Z,66.93
2018-06-22T11:01:36.615Z,67.64
2018-06-22T11:04:05.197Z,65.32
2018-06-22T11:06:33.844Z,65.45
2018-06-22T11:09:03.278Z,66.53
2018-06-22T11:11:31.931Z,66.41
2018-06-22T11:14:00.583Z,67.12
2018-06-22T11:16:29.118Z,65.14
2018-06-22T11:18:57.881Z,65.15
2018-06-22T11:21:31.799Z,64.21
2018-06-22T11:24:00.576Z,63.88
2018-06-22T11:26:29.286Z,64.96
2018-06-22T11:28:57.793Z,66.68
2018-06-22T11:31:26.361Z,66.36
2018-06-22T11:33:55.095Z,66.55
2018-06-22T11:36:23.715Z,66.00
2018-06-22T11:38:52.295Z,67.08
2018-06-22T11:41:20.919Z,69.02
2018-06-22T11:43:49.564Z,68.81
2018-06-22T11:46:18.148Z,69.31
2018-06-22T11:48:46.688Z,70.42
2018-06-22T11:51:15.230Z,69.51
2018-06-22T11:53:43.791Z,70.09
2018-06-22T11:56:12.499Z,69.32
2018-06-22T11:58:41.119Z,68.38
2018-06-22T12:01:09.758Z,65.83
2018-06-22T12:03:38.346Z,65.85
2018-06-22T12:06:07.282Z,66.37
2018-06-22T12:08:35.847Z,63.77
2018-06-22T12:11:04.603Z,64.40
2018-06-22T12:13:33.281Z,65.04
2018-06-22T12:16:02.288Z,65.24
2018-06-22T12:18:30.946Z,66.57
2018-06-22T12:20:59.625Z,66.50
2018-06-22T12:23:28.247Z,66.07
2018-06-22T12:25:56.932Z,67.07
2018-06-22T12:28:25.526Z,67.80
2018-06-22T12:30:54.441Z,68.89
2018-06-22T12:33:23.055Z,68.10
2018-06-22T12:35:51.714Z,68.28
2018-06-22T12:38:20.320Z,69.64
2018-06-22T12:40:48.964Z,69.72
2018-06-22T12:43:17.654Z,68.29
2018-06-22T12:45:46.165Z,69.33
2018-06-22T12:48:15.039Z,70.20
2018-06-22T12:50:43.598Z,71.08
2018-06-22T12:53:12.241Z,70.20
2018-06-22T12:55:41.008Z,72.62
2018-06-22T12:58:09.685Z,71.23
2018-06-22T13:00:38.222Z,69.16
2018-06-22T13:03:07.222Z,68.99
2018-06-22T13:05:35.766Z,72.08
2018-06-22T13:08:04.429Z,76.94
2018-06-22T13:10:33.059Z,79.28
2018-06-22T13:13:01.562Z,80.62
2018-06-22T13:15:30.133Z,76.17
2018-06-22T13:17:58.651Z,74.26
2018-06-22T13:20:27.377Z,69.49
2018-06-22T13:22:56.158Z,69.24
2018-06-22T13:25:24.729Z,69.34
2018-06-22T13:27:53.318Z,66.08
2018-06-22T13:30:21.941Z,67.44
2018-06-22T13:32:50.447Z,68.85
2018-06-22T13:35:19.161Z,67.55
2018-06-22T13:37:48.045Z,70.12
2018-06-22T13:40:16.667Z,68.08
2018-06-22T13:42:45.255Z,69.94
2018-06-22T13:45:13.861Z,67.81
2018-06-22T13:47:42.449Z,68.70
2018-06-22T13:50:11.369Z,69.24
2018-06-22T13:52:40.005Z,67.73
2018-06-22T13:55:08.577Z,66.85
2018-06-22T13:57:37.170Z,67.92
2018-06-22T14:00:06.562Z,67.42
2018-06-22T14:02:35.177Z,66.26
2018-06-22T14:05:09.001Z,67.75
2018-06-22T14:07:37.603Z,67.72
2018-06-22T14:10:06.254Z,68.14
2018-06-22T14:12:35.219Z,68.42
2018-06-22T14:15:03.801Z,70.06
2018-06-22T14:17:32.828Z,67.58
2018-06-22T14:20:01.427Z,66.42
2018-06-22T14:22:30.069Z,66.86
2018-06-22T14:24:58.667Z,64.75
2018-06-22T14:27:27.472Z,63.95
2018-06-22T14:29:56.135Z,61.08
2018-06-22T14:32:24.758Z,60.58
2018-06-22T14:34:53.427Z,59.52
2018-06-22T14:37:22.486Z,58.86
2018-06-22T14:39:51.045Z,57.64
2018-06-22T14:42:20.905Z,57.58
2018-06-22T14:44:49.535Z,55.54
2018-06-22T14:47:18.301Z,54.83
2018-06-22T14:49:46.970Z,55.82
2018-06-22T14:52:16.780Z,55.19
2018-06-22T14:54:50.730Z,55.32
2018-06-22T14:57:24.475Z,52.52
2018-06-22T14:59:58.287Z,53.27
2018-06-22T15:02:32.296Z,53.64
2018-06-22T15:05:08.495Z,51.43
2018-06-22T15:07:42.593Z,53.50
2018-06-22T15:10:11.199Z,51.96
2018-06-22T15:12:39.921Z,52.82
2018-06-22T15:15:14.383Z,52.25
2018-06-22T15:17:48.938Z,54.04
2018-06-22T15:20:17.558Z,54.25
2018-06-22T15:22:46.212Z,55.61
2018-06-22T15:25:15.333Z,54.03
2018-06-22T15:27:43.946Z,52.39
2018-06-22T15:30:12.532Z,51.12
2018-06-22T15:32:41.184Z,48.67
2018-06-22T15:35:15.068Z,49.34
2018-06-22T15:37:49.007Z,49.42
2018-06-22T15:40:22.902Z,48.80
2018-06-22T15:42:58.295Z,49.15
2018-06-22T15:46:31.308Z,51.45
2018-06-22T15:49:05.284Z,51.60
2018-06-22T15:51:39.527Z,52.14
2018-06-22T15:54:13.524Z,52.69
2018-06-22T15:56:42.474Z,54.49
2018-06-22T15:59:11.230Z,53.91
2018-06-22T16:01:39.799Z,54.62
2018-06-22T16:04:10.596Z,55.05
2018-06-22T16:06:39.694Z,55.83
2018-06-22T16:09:10.521Z,55.75
2018-06-22T16:11:39.207Z,56.26
2018-06-22T16:14:13.039Z,56.95
2018-06-22T16:16:46.870Z,56.63
2018-06-22T16:19:20.822Z,57.74
2018-06-22T16:21:54.668Z,56.52
2018-06-22T16:24:28.390Z,55.80
2018-06-22T16:27:02.186Z,56.05
2018-06-22T16:29:30.819Z,55.82
2018-06-22T16:31:59.498Z,55.78
2018-06-22T16:34:28.085Z,56.01
2018-06-22T16:36:56.673Z,56.38
2018-06-22T16:39:25.259Z,54.83
2018-06-22T16:41:54.248Z,54.48
2018-06-22T16:44:23.021Z,55.37
2018-06-22T16:46:51.854Z,55.01
2018-06-22T16:49:20.773Z,55.67
2018-06-22T16:51:49.431Z,56.05
2018-06-22T16:54:18.001Z,55.77
2018-06-22T16:56:46.705Z,55.81
2018-06-22T16:59:15.231Z,55.17
2018-06-22T17:01:43.854Z,56.63
2018-06-22T17:04:15.369Z,56.42
2018-06-22T17:06:49.843Z,56.92
2018-06-22T17:09:23.639Z,58.00
2018-06-22T17:11:57.523Z,58.15
2018-06-22T17:14:31.313Z,57.61
2018-06-22T17:19:06.439Z,58.12
2018-06-22T17:21:35.133Z,58.65
2018-06-22T17:24:04.061Z,58.41
2018-06-22T17:26:32.598Z,59.23
2018-06-22T17:29:01.190Z,59.75
2018-06-22T17:31:29.747Z,59.32
2018-06-22T17:33:58.278Z,59.70
2018-06-22T17:36:26.814Z,60.11
2018-06-22T17:38:55.354Z,60.27
2018-06-22T17:41:24.076Z,60.07
2018-06-22T17:43:53.508Z,60.73
2018-06-22T17:46:22.112Z,60.35
2018-06-22T17:48:50.783Z,59.83
2018-06-22T17:51:19.491Z,59.92
2018-06-22T17:53:48.052Z,59.74
2018-06-22T17:56:36.216Z,59.79
2018-06-22T17:59:10.099Z,59.11
2018-06-22T18:01:43.891Z,59.57
2018-06-22T18:04:17.822Z,59.40
2018-06-22T18:06:51.861Z,59.47
2018-06-22T18:09:25.554Z,59.76
2018-06-22T18:11:59.400Z,60.14
2018-06-22T18:14:31.899Z,59.81
2018-06-22T18:17:01.035Z,60.07
2018-06-22T18:19:29.774Z,60.09
2018-06-22T18:21:58.325Z,61.09
2018-06-22T18:24:27.136Z,62.04
2018-06-22T18:26:55.828Z,62.58
2018-06-22T18:29:24.366Z,62.23
2018-06-22T18:31:53.167Z,61.63
2018-06-22T18:34:21.794Z,60.71
2018-06-22T18:36:50.322Z,61.35
2018-06-22T18:39:19.327Z,60.91
2018-06-22T18:41:49.103Z,58.60
2018-06-22T18:44:18.530Z,58.14
2018-06-22T18:46:47.558Z,57.60
2018-06-22T18:49:17.819Z,58.11
2018-06-22T18:51:46.737Z,58.06
2018-06-22T18:54:20.944Z,57.89
2018-06-22T18:56:54.724Z,58.23
2018-06-22T18:59:28.953Z,59.15
2018-06-22T19:02:04.643Z,59.79
2018-06-22T19:04:33.229Z,59.95
2018-06-22T19:07:04.102Z,59.88
2018-06-22T19:09:33.543Z,61.06
2018-06-22T19:12:03.833Z,60.65
2018-06-22T19:14:32.976Z,60.73
2018-06-22T19:17:03.767Z,61.18
2018-06-22T19:19:34.312Z,62.50
2018-06-22T19:22:02.899Z,62.32
2018-06-22T19:24:32.046Z,62.08
2018-06-22T19:27:01.228Z,63.21
2018-06-22T19:32:29.293Z,63.38
2018-06-22T19:35:03.702Z,63.30
2018-06-22T19:37:34.601Z,63.31
2018-06-22T19:40:03.379Z,62.71
2018-06-22T19:42:31.939Z,62.79
2018-06-22T19:45:05.940Z,63.20
2018-06-22T19:47:39.843Z,63.84
2018-06-22T19:50:13.742Z,64.14
2018-06-22T19:52:47.533Z,63.04
2018-06-22T19:55:16.144Z,63.65
2018-06-22T19:57:44.903Z,63.54
2018-06-22T20:00:13.551Z,63.95
2018-06-22T20:02:42.290Z,64.57
2018-06-22T20:05:11.272Z,63.91
2018-06-22T20:07:39.891Z,64.98
2018-06-22T20:10:08.776Z,64.43
2018-06-22T20:12:37.495Z,65.21
2018-06-22T20:15:06.597Z,64.95
2018-06-22T20:17:35.653Z,64.29
2018-06-22T20:20:05.427Z,65.03
2018-06-22T20:22:33.977Z,65.16
2018-06-22T20:25:09.825Z,64.37
2018-06-22T20:27:42.345Z,65.29
2018-06-22T20:30:11.034Z,65.37
2018-06-22T20:32:39.714Z,64.65
2018-06-22T20:35:13.380Z,64.89
2018-06-22T20:37:47.127Z,65.22
2018-06-22T20:40:21.170Z,65.71
2018-06-22T20:42:53.858Z,66.37
2018-06-22T20:45:27.950Z,66.83
2018-06-22T20:48:01.766Z,67.09
2018-06-22T20:50:36.506Z,67.16
2018-06-22T20:53:05.868Z,67.75
2018-06-22T20:55:35.856Z,68.24
2018-06-22T20:58:04.917Z,67.57
2018-06-22T21:00:33.594Z,67.83
2018-06-22T21:03:02.181Z,68.46
2018-06-22T21:05:32.282Z,67.84
2018-06-22T21:08:01.028Z,67.48
2018-06-22T21:10:29.669Z,68.36
2018-06-22T21:12:58.982Z,68.24
2018-06-22T21:15:27.529Z,68.54
2018-06-22T21:17:56.343Z,69.06
2018-06-22T21:20:24.982Z,69.05
2018-06-22T21:22:53.517Z,69.65
2018-06-22T21:25:22.292Z,69.12
2018-06-22T21:27:56.404Z,69.93
2018-06-22T21:30:30.264Z,68.90
2018-06-22T21:33:05.759Z,69.45
2018-06-22T21:35:39.727Z,68.80
2018-06-22T21:38:14.128Z,69.16
2018-06-22T21:40:42.870Z,68.68
2018-06-22T21:43:11.452Z,68.57
2018-06-22T21:45:40.203Z,68.75
2018-06-22T21:48:09.114Z,68.48
2018-06-22T21:50:37.949Z,69.06
2018-06-22T21:53:06.524Z,69.37
2018-06-22T21:55:35.282Z,69.27
2018-06-22T21:58:03.985Z,69.85
2018-06-22T22:00:34.025Z,69.58
2018-06-22T22:03:03.305Z,70.42
2018-06-22T22:05:32.434Z,69.09
2018-06-22T22:08:01.191Z,69.60
2018-06-22T22:10:35.035Z,69.58
2018-06-22T22:13:03.601Z,69.46
2018-06-22T22:15:32.389Z,69.76
2018-06-22T22:18:01.099Z,69.29
2018-06-22T22:20:29.656Z,70.00
2018-06-22T22:22:58.330Z,70.30
2018-06-22T22:25:27.015Z,70.49
2018-06-22T22:27:55.569Z,70.38
2018-06-22T22:30:24.189Z,70.76
2018-06-22T22:32:52.762Z,71.07
2018-06-22T22:35:21.342Z,71.08
2018-06-22T22:37:49.927Z,72.07
2018-06-22T22:40:18.612Z,71.56
2018-06-22T22:42:47.322Z,72.25
2018-06-22T22:45:16.062Z,72.21
2018-06-22T22:47:44.639Z,72.74
2018-06-22T22:50:13.190Z,72.67
2018-06-22T22:52:41.793Z,73.41
2018-06-22T22:55:10.378Z,73.23
2018-06-22T22:57:38.938Z,74.44
2018-06-22T23:00:07.596Z,73.96
2018-06-22T23:02:36.120Z,73.61
2018-06-22T23:05:04.726Z,73.85
2018-06-22T23:07:33.239Z,75.17
2018-06-22T23:10:01.873Z,74.36
2018-06-22T23:12:30.405Z,74.30
2018-06-22T23:14:59.003Z,73.70
2018-06-22T23:17:27.566Z,73.37
2018-06-22T23:19:56.260Z,74.16
2018-06-22T23:22:36.236Z,73.72
2018-06-22T23:25:05.015Z,73.87
2018-06-22T23:27:33.656Z,74.58
2018-06-22T23:30:02.319Z,74.19
2018-06-22T23:32:30.899Z,74.51
2018-06-22T23:34:59.582Z,74.75
2018-06-22T23:37:28.143Z,73.68
2018-06-22T23:39:56.833Z,74.38
2018-06-22T23:42:25.416Z,74.05
2018-06-22T23:44:53.988Z,74.64
2018-06-22T23:47:22.475Z,75.58
2018-06-22T23:49:51.216Z,75.30
2018-06-22T23:52:19.822Z,75.70
2018-06-22T23:54:48.343Z,75.24
2018-06-22T23:57:16.944Z,75.95
2018-06-22T23:59:45.596Z,76.13
